createdAt,value
2023-04-18T00:01:18.635Z,9.98
2023-04-18T00:04:06.955Z,11.25
2023-04-18T00:06:52.972Z,11.68
2023-04-18T00:09:38.363Z,10.93
2023-04-18T00:12:24.009Z,10.65
2023-04-18T00:15:09.789Z,9.43
2023-04-18T00:17:58.625Z,9.57
2023-04-18T00:20:46.157Z,9.48
2023-04-18T00:23:33.564Z,11.35
2023-04-18T00:26:19.189Z,10.60
2023-04-18T00:29:07.136Z,9.60
2023-04-18T00:31:54.090Z,8.80
2023-04-18T00:34:41.394Z,9.93
2023-04-18T00:37:27.304Z,9.88
2023-04-18T00:40:12.623Z,8.75
2023-04-18T00:42:58.239Z,9.70
2023-04-18T00:45:44.232Z,9.90
2023-04-18T00:48:30.708Z,10.85
2023-04-18T00:51:16.741Z,9.95
2023-04-18T00:54:04.089Z,10.85
2023-04-18T00:56:49.882Z,9.35
2023-04-18T00:59:35.849Z,11.32
2023-04-18T01:02:21.342Z,10.73
2023-04-18T01:05:08.096Z,12.20
2023-04-18T01:07:58.710Z,10.60
2023-04-18T01:10:45.160Z,9.82
2023-04-18T01:13:30.564Z,11.63
2023-04-18T01:16:16.438Z,10.82
2023-04-18T01:19:02.183Z,9.90
2023-04-18T01:21:48.035Z,8.90
2023-04-18T01:24:33.548Z,9.52
2023-04-18T01:27:18.892Z,9.85
2023-04-18T01:30:04.598Z,9.30
2023-04-18T01:32:51.218Z,9.75
2023-04-18T01:35:37.085Z,8.52
2023-04-18T01:38:22.716Z,10.40
2023-04-18T01:41:08.394Z,10.85
2023-04-18T01:43:53.768Z,9.88
2023-04-18T01:46:40.029Z,8.65
2023-04-18T01:49:25.595Z,10.75
2023-04-18T01:52:14.132Z,9.90
2023-04-18T01:55:02.235Z,7.53
2023-04-18T01:57:47.678Z,8.13
2023-04-18T02:00:33.609Z,8.57
2023-04-18T02:03:19.000Z,8.50
2023-04-18T02:06:05.936Z,9.63
2023-04-18T02:08:51.516Z,7.40
2023-04-18T02:11:37.266Z,8.57
2023-04-18T02:14:22.686Z,9.55
2023-04-18T02:17:09.893Z,8.85
2023-04-18T02:19:55.205Z,7.68
2023-04-18T02:22:40.609Z,9.02
2023-04-18T02:25:27.651Z,6.28
2023-04-18T02:28:13.258Z,7.72
2023-04-18T02:30:59.826Z,7.38
2023-04-18T02:33:47.308Z,8.65
2023-04-18T02:36:32.925Z,7.28
2023-04-18T02:39:18.258Z,6.60
2023-04-18T02:42:03.549Z,6.60
2023-04-18T02:44:49.009Z,7.93
2023-04-18T02:47:43.832Z,9.57
2023-04-18T02:50:37.139Z,9.48
2023-04-18T02:53:25.046Z,6.43
2023-04-18T02:56:17.086Z,6.28
2023-04-18T02:59:21.118Z,5.65
2023-04-18T03:02:26.724Z,6.63
2023-04-18T03:05:17.515Z,6.68
2023-04-18T03:08:03.301Z,6.43
2023-04-18T03:10:49.256Z,5.82
2023-04-18T03:13:38.091Z,7.38
2023-04-18T03:16:24.569Z,6.68
2023-04-18T03:19:10.528Z,7.95
2023-04-18T03:21:56.233Z,5.50
2023-04-18T03:24:41.602Z,6.18
2023-04-18T03:27:29.062Z,7.40
2023-04-18T03:30:17.231Z,5.32
2023-04-18T03:33:08.850Z,6.72
2023-04-18T03:35:54.848Z,7.30
2023-04-18T03:38:42.003Z,6.80
2023-04-18T03:41:28.302Z,6.88
2023-04-18T03:47:01.861Z,5.40
2023-04-18T03:49:49.224Z,6.10
2023-04-18T03:52:35.102Z,6.30
2023-04-18T03:55:23.177Z,8.10
2023-04-18T03:58:09.887Z,6.72
2023-04-18T04:00:56.207Z,6.15
2023-04-18T04:03:41.904Z,6.15
2023-04-18T04:06:27.603Z,5.60
2023-04-18T04:09:13.593Z,7.53
2023-04-18T04:12:00.021Z,5.32
2023-04-18T04:14:46.402Z,5.35
2023-04-18T04:17:31.658Z,5.93
2023-04-18T04:20:23.001Z,6.45
2023-04-18T04:23:10.224Z,6.47
2023-04-18T04:25:58.842Z,7.53
2023-04-18T04:29:05.080Z,6.05
2023-04-18T04:31:52.880Z,6.32
2023-04-18T04:34:48.002Z,6.70
2023-04-18T04:37:33.753Z,7.15
2023-04-18T04:40:35.137Z,6.95
2023-04-18T04:43:28.891Z,8.63
2023-04-18T04:46:15.999Z,6.88
2023-04-18T04:49:02.170Z,7.55
2023-04-18T04:51:48.176Z,9.18
2023-04-18T04:54:33.558Z,9.52
2023-04-18T04:57:20.165Z,9.30
2023-04-18T05:00:07.788Z,9.00
2023-04-18T05:02:59.978Z,9.93
2023-04-18T05:05:46.696Z,6.95
2023-04-18T05:08:32.396Z,8.00
2023-04-18T05:11:18.109Z,11.52
2023-04-18T05:14:03.875Z,9.57
2023-04-18T05:16:49.395Z,10.73
2023-04-18T05:19:35.471Z,8.25
2023-04-18T05:22:21.112Z,11.93
2023-04-18T05:25:06.728Z,9.95
2023-04-18T05:27:52.559Z,9.40
2023-04-18T05:30:37.860Z,9.65
2023-04-18T05:33:23.142Z,10.07
2023-04-18T05:36:08.705Z,10.13
2023-04-18T05:38:54.393Z,10.05
2023-04-18T05:41:40.554Z,10.93
2023-04-18T05:44:26.237Z,11.35
2023-04-18T05:47:11.456Z,10.80
2023-04-18T05:49:56.791Z,13.18
2023-04-18T05:52:42.031Z,12.00
2023-04-18T05:55:27.384Z,16.90
2023-04-18T05:58:12.648Z,11.82
2023-04-18T06:00:58.072Z,13.07
2023-04-18T06:03:43.791Z,13.38
2023-04-18T06:06:29.846Z,14.23
2023-04-18T06:09:15.892Z,11.38
2023-04-18T06:12:02.206Z,14.98
2023-04-18T06:14:47.401Z,14.07
2023-04-18T06:17:33.801Z,16.45
2023-04-18T06:20:19.398Z,14.68
2023-04-18T06:23:04.912Z,15.60
2023-04-18T06:25:50.060Z,14.43
2023-04-18T06:28:35.935Z,12.43
2023-04-18T06:31:21.302Z,17.02
2023-04-18T06:34:07.207Z,13.20
2023-04-18T06:36:52.832Z,12.95
2023-04-18T06:39:38.055Z,13.90
2023-04-18T06:42:23.537Z,16.33
2023-04-18T06:45:12.017Z,17.40
2023-04-18T06:47:59.676Z,17.70
2023-04-18T06:50:45.721Z,15.10
2023-04-18T06:53:31.369Z,17.67
2023-04-18T06:56:17.123Z,21.88
2023-04-18T06:59:02.590Z,18.02
2023-04-18T07:01:47.993Z,17.67
2023-04-18T07:04:33.232Z,17.08
2023-04-18T07:07:19.464Z,15.27
2023-04-18T07:10:06.268Z,16.85
2023-04-18T07:12:51.768Z,13.55
2023-04-18T07:15:37.167Z,13.20
2023-04-18T07:18:34.071Z,18.55
2023-04-18T07:21:23.893Z,17.75
2023-04-18T07:24:10.391Z,18.75
2023-04-18T07:26:56.061Z,17.25
2023-04-18T07:29:41.614Z,14.05
2023-04-18T07:32:26.883Z,19.65
2023-04-18T07:35:12.352Z,15.68
2023-04-18T07:37:57.438Z,20.60
2023-04-18T07:40:42.841Z,16.40
2023-04-18T07:43:28.733Z,16.35
2023-04-18T07:46:14.540Z,16.38
2023-04-18T07:48:59.955Z,16.75
2023-04-18T07:51:45.636Z,17.08
2023-04-18T07:54:31.031Z,16.75
2023-04-18T07:57:16.485Z,17.13
2023-04-18T08:00:01.958Z,17.15
2023-04-18T08:02:58.893Z,16.05
2023-04-18T08:05:44.517Z,16.13
2023-04-18T08:08:30.090Z,15.60
2023-04-18T08:11:15.909Z,15.95
2023-04-18T08:14:01.781Z,13.45
2023-04-18T08:16:47.552Z,13.68
2023-04-18T08:19:32.748Z,16.20
2023-04-18T08:22:18.132Z,16.42
2023-04-18T08:25:05.491Z,12.02
2023-04-18T08:27:51.361Z,14.65
2023-04-18T08:30:36.910Z,15.43
2023-04-18T08:33:23.820Z,11.90
2023-04-18T08:36:09.750Z,13.73
2023-04-18T08:38:56.290Z,11.82
2023-04-18T08:41:42.816Z,13.65
2023-04-18T08:44:28.981Z,17.73
2023-04-18T08:47:14.759Z,15.80
2023-04-18T08:50:01.726Z,17.15
2023-04-18T08:52:48.923Z,14.50
2023-04-18T08:55:34.462Z,14.68
2023-04-18T08:58:22.338Z,14.93
2023-04-18T09:01:07.818Z,14.52
2023-04-18T09:03:53.482Z,15.13
2023-04-18T09:06:51.987Z,11.73
2023-04-18T09:09:45.489Z,12.25
2023-04-18T09:12:32.611Z,14.55
2023-04-18T09:15:23.308Z,14.50
2023-04-18T09:18:10.460Z,12.85
2023-04-18T09:20:56.798Z,14.77
2023-04-18T09:23:42.132Z,17.42
2023-04-18T09:26:35.857Z,14.35
2023-04-18T09:29:22.802Z,11.65
2023-04-18T09:32:08.146Z,15.45
2023-04-18T09:35:04.997Z,12.93
2023-04-18T09:37:51.411Z,12.88
2023-04-18T09:40:36.605Z,15.93
2023-04-18T09:43:21.982Z,16.08
2023-04-18T09:46:09.045Z,12.10
2023-04-18T09:48:54.602Z,14.45
2023-04-18T09:51:41.537Z,15.00
2023-04-18T09:54:30.293Z,14.57
2023-04-18T09:57:16.663Z,13.55
2023-04-18T10:00:17.500Z,13.85
2023-04-18T10:03:10.584Z,11.75
2023-04-18T10:05:57.770Z,12.48
2023-04-18T10:08:45.020Z,13.60
2023-04-18T10:11:31.434Z,14.23
2023-04-18T10:14:17.500Z,13.40
2023-04-18T10:17:03.399Z,9.35
2023-04-18T10:20:05.496Z,14.05
2023-04-18T10:22:51.428Z,13.48
2023-04-18T10:25:39.705Z,15.00
2023-04-18T10:28:26.595Z,10.27
2023-04-18T10:31:12.094Z,11.77
2023-04-18T10:37:04.424Z,12.20
2023-04-18T10:39:53.906Z,9.70
2023-04-18T10:42:48.501Z,12.05
2023-04-18T10:45:36.621Z,12.45
2023-04-18T10:48:29.600Z,11.20
2023-04-18T10:51:15.812Z,15.98
2023-04-18T10:54:01.358Z,11.45
2023-04-18T10:56:57.414Z,12.30
2023-04-18T10:59:44.174Z,12.40
2023-04-18T11:02:32.527Z,9.98
2023-04-18T11:05:26.104Z,10.60
2023-04-18T11:08:24.317Z,12.50
2023-04-18T11:11:11.377Z,11.38
2023-04-18T11:13:58.414Z,8.77
2023-04-18T11:16:43.808Z,8.48
2023-04-18T11:19:29.242Z,10.32
2023-04-18T11:22:15.253Z,12.40
2023-04-18T11:25:01.872Z,13.07
2023-04-18T11:27:49.915Z,10.65
2023-04-18T11:30:41.746Z,11.73
2023-04-18T11:33:30.477Z,11.55
2023-04-18T11:36:15.890Z,10.18
2023-04-18T11:39:01.469Z,9.55
2023-04-18T11:41:50.629Z,11.00
2023-04-18T11:44:39.725Z,10.48
2023-04-18T11:47:29.966Z,10.30
2023-04-18T11:50:15.668Z,12.15
2023-04-18T11:53:01.118Z,11.48
2023-04-18T11:55:56.024Z,8.95
2023-04-18T11:58:42.239Z,9.75
2023-04-18T12:01:27.838Z,9.18
2023-04-18T12:04:13.681Z,8.13
2023-04-18T12:06:59.646Z,8.35
2023-04-18T12:09:45.137Z,8.13
2023-04-18T12:12:30.806Z,9.10
2023-04-18T12:15:16.800Z,9.45
2023-04-18T12:18:05.327Z,11.35
2023-04-18T12:20:54.307Z,10.60
2023-04-18T12:23:40.495Z,8.48
2023-04-18T12:26:28.771Z,8.50
2023-04-18T12:29:14.516Z,8.77
2023-04-18T12:32:00.525Z,9.23
2023-04-18T12:34:46.045Z,8.30
2023-04-18T12:37:31.279Z,9.63
2023-04-18T12:40:18.956Z,9.98
2023-04-18T12:43:04.718Z,10.23
2023-04-18T12:45:50.421Z,10.35
2023-04-18T12:48:35.876Z,11.00
2023-04-18T12:51:21.916Z,8.55
2023-04-18T12:54:07.344Z,8.27
2023-04-18T12:56:52.622Z,7.18
2023-04-18T12:59:37.999Z,9.23
2023-04-18T13:02:23.583Z,8.48
2023-04-18T13:05:15.329Z,9.90
2023-04-18T13:10:49.741Z,8.30
2023-04-18T13:13:35.742Z,9.82
2023-04-18T13:16:21.425Z,9.65
2023-04-18T13:19:07.130Z,8.48
2023-04-18T13:21:53.373Z,10.02
2023-04-18T13:24:38.865Z,9.48
2023-04-18T13:27:24.268Z,7.25
2023-04-18T13:30:11.150Z,9.18
2023-04-18T13:32:56.931Z,12.40
2023-04-18T13:35:42.568Z,9.95
2023-04-18T13:38:28.324Z,10.13
2023-04-18T13:41:13.923Z,10.27
2023-04-18T13:43:59.856Z,9.15
2023-04-18T13:46:45.688Z,9.50
2023-04-18T13:49:31.693Z,10.02
2023-04-18T13:52:17.609Z,8.60
2023-04-18T13:55:03.956Z,11.90
2023-04-18T13:57:49.727Z,9.10
2023-04-18T14:00:35.400Z,9.55
2023-04-18T14:03:21.048Z,7.60
2023-04-18T14:06:06.770Z,7.90
2023-04-18T14:08:52.015Z,7.25
2023-04-18T14:11:37.741Z,8.23
2023-04-18T14:14:23.348Z,7.68
2023-04-18T14:17:08.617Z,8.48
2023-04-18T14:19:54.094Z,10.77
2023-04-18T14:22:39.366Z,7.82
2023-04-18T14:25:24.817Z,6.60
2023-04-18T14:28:11.616Z,8.18
2023-04-18T14:30:58.105Z,6.85
2023-04-18T14:33:44.781Z,8.55
2023-04-18T14:36:30.966Z,8.10
2023-04-18T14:39:16.673Z,8.30
2023-04-18T14:42:02.212Z,10.48
2023-04-18T14:44:48.276Z,9.25
2023-04-18T14:47:34.812Z,8.50
2023-04-18T14:50:20.640Z,8.75
2023-04-18T14:53:06.845Z,7.32
2023-04-18T14:55:52.655Z,8.40
2023-04-18T14:58:38.391Z,8.85
2023-04-18T15:01:23.593Z,9.60
2023-04-18T15:04:09.147Z,7.82
2023-04-18T15:06:55.152Z,8.77
2023-04-18T15:09:40.961Z,9.30
2023-04-18T15:12:26.527Z,7.47
2023-04-18T15:15:11.853Z,9.23
2023-04-18T15:17:58.143Z,9.80
2023-04-18T15:20:44.077Z,10.40
2023-04-18T15:23:30.359Z,9.35
2023-04-18T15:26:15.960Z,8.90
2023-04-18T15:29:03.728Z,9.48
2023-04-18T15:31:49.270Z,10.00
2023-04-18T15:34:34.760Z,10.25
2023-04-18T15:37:20.259Z,11.63
2023-04-18T15:40:09.334Z,8.98
2023-04-18T15:42:56.036Z,10.73
2023-04-18T15:45:41.585Z,9.02
2023-04-18T15:48:28.626Z,9.30
2023-04-18T15:51:14.448Z,9.95
2023-04-18T15:54:00.190Z,10.32
2023-04-18T15:56:45.858Z,10.35
2023-04-18T15:59:31.432Z,9.32
2023-04-18T16:02:17.272Z,10.52
2023-04-18T16:05:03.277Z,8.30
2023-04-18T16:07:53.833Z,10.55
2023-04-18T16:13:24.906Z,9.85
2023-04-18T16:16:10.703Z,11.93
2023-04-18T16:18:56.779Z,11.13
2023-04-18T16:21:42.212Z,9.57
2023-04-18T16:24:27.581Z,12.27
2023-04-18T16:27:12.798Z,10.75
2023-04-18T16:29:58.217Z,14.35
2023-04-18T16:32:43.914Z,9.60
2023-04-18T16:35:29.781Z,12.15
2023-04-18T16:38:14.980Z,11.30
2023-04-18T16:41:01.813Z,11.85
2023-04-18T16:43:47.383Z,10.90
2023-04-18T16:46:33.081Z,12.07
2023-04-18T16:49:19.128Z,11.82
2023-04-18T16:52:04.703Z,12.60
2023-04-18T16:54:52.505Z,14.10
2023-04-18T16:57:38.692Z,12.68
2023-04-18T17:00:24.459Z,9.65
2023-04-18T17:03:12.642Z,11.07
2023-04-18T17:05:58.473Z,16.08
2023-04-18T17:08:44.448Z,17.25
2023-04-18T17:11:32.161Z,16.42
2023-04-18T17:14:18.345Z,13.88
2023-04-18T17:17:04.196Z,15.75
2023-04-18T17:19:49.530Z,15.63
2023-04-18T17:22:34.922Z,15.48
2023-04-18T17:25:21.136Z,15.95
2023-04-18T17:28:06.964Z,12.82
2023-04-18T17:30:52.241Z,15.27
2023-04-18T17:33:37.617Z,13.07
2023-04-18T17:36:22.850Z,16.13
2023-04-18T17:39:09.620Z,20.55
2023-04-18T17:42:14.505Z,18.33
2023-04-18T17:45:02.017Z,19.80
2023-04-18T17:47:49.530Z,17.95
2023-04-18T17:50:37.026Z,20.05
2023-04-18T17:53:22.644Z,15.07
2023-04-18T17:56:09.646Z,15.70
2023-04-18T17:58:56.808Z,18.77
2023-04-18T18:01:42.774Z,14.10
2023-04-18T18:04:29.412Z,18.08
2023-04-18T18:07:15.654Z,17.17
2023-04-18T18:10:01.433Z,18.48
2023-04-18T18:12:46.812Z,15.48
2023-04-18T18:15:32.336Z,15.60
2023-04-18T18:18:17.668Z,17.35
2023-04-18T18:21:04.341Z,18.58
2023-04-18T18:23:57.011Z,15.10
2023-04-18T18:26:44.197Z,14.88
2023-04-18T18:29:32.249Z,16.05
2023-04-18T18:32:23.327Z,17.58
2023-04-18T18:38:08.874Z,16.25
2023-04-18T18:40:55.321Z,17.35
2023-04-18T18:43:41.127Z,15.95
2023-04-18T18:46:27.306Z,20.58
2023-04-18T18:49:13.624Z,18.58
2023-04-18T18:51:59.960Z,16.85
2023-04-18T18:54:45.857Z,21.70
2023-04-18T18:57:32.055Z,17.75
2023-04-18T19:00:18.332Z,19.42
2023-04-18T19:03:04.748Z,15.02
2023-04-18T19:05:51.678Z,16.17
2023-04-18T19:08:38.008Z,17.65
2023-04-18T19:11:23.643Z,15.32
2023-04-18T19:14:09.608Z,15.23
2023-04-18T19:16:57.953Z,15.57
2023-04-18T19:19:43.581Z,16.02
2023-04-18T19:22:30.092Z,14.88
2023-04-18T19:25:16.440Z,16.70
2023-04-18T19:28:01.925Z,17.90
2023-04-18T19:30:47.382Z,15.98
2023-04-18T19:33:33.532Z,14.25
2023-04-18T19:36:19.590Z,14.43
2023-04-18T19:39:05.729Z,17.20
2023-04-18T19:41:51.553Z,15.43
2023-04-18T19:44:38.580Z,20.65
2023-04-18T19:47:28.238Z,24.95
2023-04-18T19:50:14.777Z,15.75
2023-04-18T19:53:00.801Z,20.13
2023-04-18T19:55:46.634Z,15.82
2023-04-18T19:58:44.839Z,16.58
2023-04-18T20:01:30.988Z,16.05
2023-04-18T20:04:17.277Z,16.13
2023-04-18T20:07:03.462Z,22.17
2023-04-18T20:09:49.586Z,22.55
2023-04-18T20:12:35.570Z,16.67
2023-04-18T20:15:22.571Z,17.90
2023-04-18T20:18:08.218Z,15.98
2023-04-18T20:20:54.201Z,18.13
2023-04-18T20:23:42.134Z,16.35
2023-04-18T20:29:13.368Z,17.27
2023-04-18T20:31:59.300Z,15.55
2023-04-18T20:34:46.644Z,26.63
2023-04-18T20:37:36.584Z,16.35
2023-04-18T20:40:22.701Z,18.92
2023-04-18T20:43:08.994Z,15.85
2023-04-18T20:45:57.748Z,18.13
2023-04-18T20:48:44.488Z,16.42
2023-04-18T20:51:31.863Z,15.50
2023-04-18T20:54:17.194Z,17.65
2023-04-18T20:57:02.930Z,16.65
2023-04-18T20:59:48.963Z,16.58
2023-04-18T21:02:34.804Z,15.32
2023-04-18T21:05:20.471Z,17.73
2023-04-18T21:08:06.013Z,19.98
2023-04-18T21:10:51.768Z,16.10
2023-04-18T21:13:37.480Z,18.55
2023-04-18T21:16:24.098Z,16.40
2023-04-18T21:19:11.102Z,22.33
2023-04-18T21:21:56.820Z,15.90
2023-04-18T21:24:42.499Z,18.67
2023-04-18T21:27:28.225Z,17.80
2023-04-18T21:30:13.984Z,19.95
2023-04-18T21:32:59.498Z,15.85
2023-04-18T21:35:44.917Z,17.02
2023-04-18T21:38:30.128Z,19.13
2023-04-18T21:41:16.967Z,18.30
2023-04-18T21:44:02.551Z,19.38
2023-04-18T21:46:48.494Z,19.15
2023-04-18T21:49:33.793Z,18.23
2023-04-18T21:52:20.293Z,18.77
2023-04-18T21:55:07.245Z,22.10
2023-04-18T21:57:54.336Z,28.40
2023-04-18T22:00:40.148Z,23.58
2023-04-18T22:03:27.506Z,25.25
2023-04-18T22:06:13.518Z,22.13
2023-04-18T22:08:59.015Z,20.00
2023-04-18T22:11:44.172Z,22.75
2023-04-18T22:14:29.432Z,17.40
2023-04-18T22:17:14.748Z,18.75
2023-04-18T22:20:00.028Z,18.75
2023-04-18T22:22:45.734Z,28.83
2023-04-18T22:25:31.405Z,25.42
2023-04-18T22:28:16.818Z,20.77
2023-04-18T22:31:02.534Z,21.77
2023-04-18T22:33:48.074Z,20.48
2023-04-18T22:36:33.382Z,20.98
2023-04-18T22:39:18.587Z,22.23
2023-04-18T22:42:04.063Z,21.52
2023-04-18T22:44:49.610Z,21.42
2023-04-18T22:47:35.056Z,22.58
2023-04-18T22:50:20.872Z,20.63
2023-04-18T22:53:06.494Z,31.48
2023-04-18T22:55:51.664Z,37.08
2023-04-18T22:58:37.078Z,22.08
2023-04-18T23:01:22.355Z,26.35
2023-04-18T23:04:07.971Z,22.65
2023-04-18T23:06:53.343Z,25.40
2023-04-18T23:09:39.090Z,27.05
2023-04-18T23:12:24.895Z,26.45
2023-04-18T23:15:10.688Z,30.13
2023-04-18T23:17:56.337Z,24.38
2023-04-18T23:20:41.736Z,24.13
2023-04-18T23:23:27.080Z,22.90
2023-04-18T23:26:16.193Z,34.25
2023-04-18T23:29:01.878Z,24.80
2023-04-18T23:31:47.278Z,28.15
2023-04-18T23:34:32.669Z,21.52
2023-04-18T23:37:17.930Z,23.23
2023-04-18T23:40:06.646Z,25.75
2023-04-18T23:42:52.635Z,26.63
2023-04-18T23:45:37.862Z,22.83
2023-04-18T23:48:23.249Z,35.63
2023-04-18T23:51:08.716Z,27.15
2023-04-18T23:53:54.065Z,23.75
2023-04-18T23:56:39.520Z,27.13
2023-04-18T23:59:24.742Z,25.85
